sensor_id;sensor_type;location;lat;lon;timestamp;P1;durP1;ratioP1;P2;durP2;ratioP2
7831;SDS011;3961;42.058;25.586;2024-01-16T00:02:10;70.93;;;35.80;;
7831;SDS011;3961;42.058;25.586;2024-01-16T00:04:36;69.60;;;37.13;;
7831;SDS011;3961;42.058;25.586;2024-01-16T00:07:03;66.87;;;37.23;;
7831;SDS011;3961;42.058;25.586;2024-01-16T00:09:32;71.00;;;39.03;;
7831;SDS011;3961;42.058;25.586;2024-01-16T00:11:58;72.67;;;40.20;;
7831;SDS011;3961;42.058;25.586;2024-01-16T00:14:23;72.80;;;39.80;;
7831;SDS011;3961;42.058;25.586;2024-01-16T00:16:49;74.30;;;41.23;;
7831;SDS011;3961;42.058;25.586;2024-01-16T00:19:14;81.43;;;43.07;;
7831;SDS011;3961;42.058;25.586;2024-01-16T00:21:40;79.20;;;41.97;;
7831;SDS011;3961;42.058;25.586;2024-01-16T00:24:06;73.97;;;40.43;;
7831;SDS011;3961;42.058;25.586;2024-01-16T00:26:32;79.30;;;40.67;;
7831;SDS011;3961;42.058;25.586;2024-01-16T00:28:58;77.47;;;40.03;;
7831;SDS011;3961;42.058;25.586;2024-01-16T00:31:23;81.53;;;43.67;;
7831;SDS011;3961;42.058;25.586;2024-01-16T00:33:49;76.30;;;41.33;;
7831;SDS011;3961;42.058;25.586;2024-01-16T00:36:14;73.30;;;40.10;;
7831;SDS011;3961;42.058;25.586;2024-01-16T00:38:40;71.13;;;39.47;;
7831;SDS011;3961;42.058;25.586;2024-01-16T00:41:06;75.87;;;39.63;;
7831;SDS011;3961;42.058;25.586;2024-01-16T00:43:32;75.40;;;40.83;;
7831;SDS011;3961;42.058;25.586;2024-01-16T00:45:58;68.20;;;39.53;;
7831;SDS011;3961;42.058;25.586;2024-01-16T00:48:23;74.87;;;39.97;;
7831;SDS011;3961;42.058;25.586;2024-01-16T00:50:49;75.73;;;39.50;;
7831;SDS011;3961;42.058;25.586;2024-01-16T00:53:18;73.60;;;41.37;;
7831;SDS011;3961;42.058;25.586;2024-01-16T00:55:43;74.90;;;39.50;;
7831;SDS011;3961;42.058;25.586;2024-01-16T00:58:09;73.67;;;40.50;;
7831;SDS011;3961;42.058;25.586;2024-01-16T01:00:34;83.07;;;42.60;;
7831;SDS011;3961;42.058;25.586;2024-01-16T01:03:02;75.93;;;38.77;;
7831;SDS011;3961;42.058;25.586;2024-01-16T01:05:31;75.03;;;40.30;;
7831;SDS011;3961;42.058;25.586;2024-01-16T01:07:57;70.07;;;39.40;;
7831;SDS011;3961;42.058;25.586;2024-01-16T01:10:23;79.13;;;41.33;;
7831;SDS011;3961;42.058;25.586;2024-01-16T01:12:49;79.03;;;41.37;;
7831;SDS011;3961;42.058;25.586;2024-01-16T01:15:16;71.77;;;38.87;;
7831;SDS011;3961;42.058;25.586;2024-01-16T01:17:42;72.37;;;39.43;;
7831;SDS011;3961;42.058;25.586;2024-01-16T01:20:08;81.53;;;40.13;;
7831;SDS011;3961;42.058;25.586;2024-01-16T01:22:34;77.83;;;41.77;;
7831;SDS011;3961;42.058;25.586;2024-01-16T01:25:00;72.93;;;41.10;;
7831;SDS011;3961;42.058;25.586;2024-01-16T01:27:26;70.10;;;39.33;;
7831;SDS011;3961;42.058;25.586;2024-01-16T01:29:51;74.80;;;40.20;;
7831;SDS011;3961;42.058;25.586;2024-01-16T01:32:17;76.80;;;41.97;;
7831;SDS011;3961;42.058;25.586;2024-01-16T01:34:42;78.20;;;39.90;;
7831;SDS011;3961;42.058;25.586;2024-01-16T01:37:08;75.23;;;40.00;;
7831;SDS011;3961;42.058;25.586;2024-01-16T01:39:33;73.07;;;40.00;;
7831;SDS011;3961;42.058;25.586;2024-01-16T01:41:59;83.83;;;41.77;;
7831;SDS011;3961;42.058;25.586;2024-01-16T01:44:24;76.47;;;41.37;;
7831;SDS011;3961;42.058;25.586;2024-01-16T01:46:50;74.50;;;40.30;;
7831;SDS011;3961;42.058;25.586;2024-01-16T01:49:19;68.37;;;38.20;;
7831;SDS011;3961;42.058;25.586;2024-01-16T01:51:45;72.43;;;39.37;;
7831;SDS011;3961;42.058;25.586;2024-01-16T01:54:11;78.63;;;40.70;;
7831;SDS011;3961;42.058;25.586;2024-01-16T01:56:39;68.93;;;40.50;;
7831;SDS011;3961;42.058;25.586;2024-01-16T01:59:04;76.87;;;42.30;;
7831;SDS011;3961;42.058;25.586;2024-01-16T02:01:31;73.77;;;40.77;;
7831;SDS011;3961;42.058;25.586;2024-01-16T02:03:57;80.23;;;40.43;;
7831;SDS011;3961;42.058;25.586;2024-01-16T02:06:24;83.50;;;41.97;;
7831;SDS011;3961;42.058;25.586;2024-01-16T02:08:50;74.83;;;40.90;;
7831;SDS011;3961;42.058;25.586;2024-01-16T02:11:16;73.83;;;40.70;;
7831;SDS011;3961;42.058;25.586;2024-01-16T02:13:42;73.67;;;41.70;;
7831;SDS011;3961;42.058;25.586;2024-01-16T02:16:20;72.03;;;39.80;;
7831;SDS011;3961;42.058;25.586;2024-01-16T02:18:46;78.60;;;40.43;;
7831;SDS011;3961;42.058;25.586;2024-01-16T02:21:12;75.90;;;42.93;;
7831;SDS011;3961;42.058;25.586;2024-01-16T02:23:44;73.53;;;39.63;;
7831;SDS011;3961;42.058;25.586;2024-01-16T02:26:10;77.67;;;42.23;;
7831;SDS011;3961;42.058;25.586;2024-01-16T02:28:35;67.60;;;39.10;;
7831;SDS011;3961;42.058;25.586;2024-01-16T02:31:01;74.37;;;41.77;;
7831;SDS011;3961;42.058;25.586;2024-01-16T02:33:27;74.03;;;42.40;;
7831;SDS011;3961;42.058;25.586;2024-01-16T02:35:52;79.43;;;43.70;;
7831;SDS011;3961;42.058;25.586;2024-01-16T02:38:18;78.37;;;40.20;;
7831;SDS011;3961;42.058;25.586;2024-01-16T02:40:44;80.30;;;42.07;;
7831;SDS011;3961;42.058;25.586;2024-01-16T02:43:10;79.07;;;42.23;;
7831;SDS011;3961;42.058;25.586;2024-01-16T02:45:35;74.93;;;41.40;;
7831;SDS011;3961;42.058;25.586;2024-01-16T02:48:01;73.00;;;40.90;;
7831;SDS011;3961;42.058;25.586;2024-01-16T02:50:28;79.57;;;41.10;;
7831;SDS011;3961;42.058;25.586;2024-01-16T02:52:54;78.17;;;40.70;;
7831;SDS011;3961;42.058;25.586;2024-01-16T02:55:19;76.97;;;41.17;;
7831;SDS011;3961;42.058;25.586;2024-01-16T02:57:45;78.70;;;40.83;;
7831;SDS011;3961;42.058;25.586;2024-01-16T03:00:10;68.93;;;39.23;;
7831;SDS011;3961;42.058;25.586;2024-01-16T03:02:36;84.30;;;42.27;;
7831;SDS011;3961;42.058;25.586;2024-01-16T03:05:02;82.93;;;41.73;;
7831;SDS011;3961;42.058;25.586;2024-01-16T03:07:30;77.53;;;40.07;;
7831;SDS011;3961;42.058;25.586;2024-01-16T03:09:56;75.63;;;41.93;;
7831;SDS011;3961;42.058;25.586;2024-01-16T03:12:21;76.67;;;41.77;;
7831;SDS011;3961;42.058;25.586;2024-01-16T03:14:47;86.00;;;41.40;;
7831;SDS011;3961;42.058;25.586;2024-01-16T03:17:12;70.87;;;40.27;;
7831;SDS011;3961;42.058;25.586;2024-01-16T03:19:38;81.23;;;41.97;;
7831;SDS011;3961;42.058;25.586;2024-01-16T03:22:03;77.53;;;40.17;;
7831;SDS011;3961;42.058;25.586;2024-01-16T03:24:29;77.87;;;40.60;;
7831;SDS011;3961;42.058;25.586;2024-01-16T03:26:54;84.60;;;41.93;;
7831;SDS011;3961;42.058;25.586;2024-01-16T03:29:20;75.60;;;41.10;;
7831;SDS011;3961;42.058;25.586;2024-01-16T03:31:46;73.43;;;39.30;;
7831;SDS011;3961;42.058;25.586;2024-01-16T03:34:11;81.37;;;43.07;;
7831;SDS011;3961;42.058;25.586;2024-01-16T03:36:37;73.53;;;38.33;;
7831;SDS011;3961;42.058;25.586;2024-01-16T03:39:03;74.27;;;39.40;;
7831;SDS011;3961;42.058;25.586;2024-01-16T03:41:28;74.63;;;39.70;;
7831;SDS011;3961;42.058;25.586;2024-01-16T03:43:54;72.23;;;38.97;;
7831;SDS011;3961;42.058;25.586;2024-01-16T03:46:22;70.77;;;38.03;;
7831;SDS011;3961;42.058;25.586;2024-01-16T03:48:47;66.73;;;36.10;;
7831;SDS011;3961;42.058;25.586;2024-01-16T03:51:13;70.70;;;36.67;;
7831;SDS011;3961;42.058;25.586;2024-01-16T03:53:41;71.60;;;38.80;;
7831;SDS011;3961;42.058;25.586;2024-01-16T03:56:06;70.93;;;38.23;;
7831;SDS011;3961;42.058;25.586;2024-01-16T03:58:35;75.33;;;37.17;;
7831;SDS011;3961;42.058;25.586;2024-01-16T04:01:00;64.57;;;36.13;;
7831;SDS011;3961;42.058;25.586;2024-01-16T04:03:26;67.53;;;37.03;;
7831;SDS011;3961;42.058;25.586;2024-01-16T04:05:51;70.57;;;37.23;;
7831;SDS011;3961;42.058;25.586;2024-01-16T04:08:17;71.77;;;37.33;;
7831;SDS011;3961;42.058;25.586;2024-01-16T04:10:42;69.67;;;36.10;;
7831;SDS011;3961;42.058;25.586;2024-01-16T04:13:08;64.30;;;34.77;;
7831;SDS011;3961;42.058;25.586;2024-01-16T04:15:33;65.70;;;34.33;;
7831;SDS011;3961;42.058;25.586;2024-01-16T04:18:02;62.27;;;33.10;;
7831;SDS011;3961;42.058;25.586;2024-01-16T04:20:28;63.23;;;32.57;;
7831;SDS011;3961;42.058;25.586;2024-01-16T04:22:53;61.03;;;33.67;;
7831;SDS011;3961;42.058;25.586;2024-01-16T04:25:19;58.70;;;31.80;;
7831;SDS011;3961;42.058;25.586;2024-01-16T04:27:44;60.03;;;31.13;;
7831;SDS011;3961;42.058;25.586;2024-01-16T04:30:10;62.23;;;31.83;;
7831;SDS011;3961;42.058;25.586;2024-01-16T04:32:36;59.00;;;33.00;;
7831;SDS011;3961;42.058;25.586;2024-01-16T04:35:02;64.00;;;34.50;;
7831;SDS011;3961;42.058;25.586;2024-01-16T04:37:27;64.00;;;34.43;;
7831;SDS011;3961;42.058;25.586;2024-01-16T04:39:53;61.03;;;34.37;;
7831;SDS011;3961;42.058;25.586;2024-01-16T04:42:19;62.10;;;33.27;;
7831;SDS011;3961;42.058;25.586;2024-01-16T04:44:44;68.63;;;34.90;;
7831;SDS011;3961;42.058;25.586;2024-01-16T04:47:10;62.17;;;34.10;;
7831;SDS011;3961;42.058;25.586;2024-01-16T04:49:37;65.93;;;35.03;;
7831;SDS011;3961;42.058;25.586;2024-01-16T04:52:02;62.17;;;34.10;;
7831;SDS011;3961;42.058;25.586;2024-01-16T04:54:28;57.43;;;32.60;;
7831;SDS011;3961;42.058;25.586;2024-01-16T04:56:54;56.77;;;32.03;;
7831;SDS011;3961;42.058;25.586;2024-01-16T04:59:19;61.77;;;33.30;;
7831;SDS011;3961;42.058;25.586;2024-01-16T05:01:45;63.40;;;33.93;;
7831;SDS011;3961;42.058;25.586;2024-01-16T05:04:10;64.03;;;34.83;;
7831;SDS011;3961;42.058;25.586;2024-01-16T05:06:36;71.80;;;34.93;;
7831;SDS011;3961;42.058;25.586;2024-01-16T05:09:01;66.87;;;34.03;;
7831;SDS011;3961;42.058;25.586;2024-01-16T05:11:28;67.10;;;35.83;;
7831;SDS011;3961;42.058;25.586;2024-01-16T05:13:54;70.10;;;37.30;;
7831;SDS011;3961;42.058;25.586;2024-01-16T05:16:25;66.17;;;35.23;;
7831;SDS011;3961;42.058;25.586;2024-01-16T05:18:52;76.90;;;37.83;;
7831;SDS011;3961;42.058;25.586;2024-01-16T05:21:18;74.30;;;37.50;;
7831;SDS011;3961;42.058;25.586;2024-01-16T05:23:44;73.83;;;36.80;;
7831;SDS011;3961;42.058;25.586;2024-01-16T05:26:09;71.97;;;37.87;;
7831;SDS011;3961;42.058;25.586;2024-01-16T05:28:35;71.40;;;35.73;;
7831;SDS011;3961;42.058;25.586;2024-01-16T05:31:00;67.30;;;36.97;;
7831;SDS011;3961;42.058;25.586;2024-01-16T05:33:25;68.73;;;36.27;;
7831;SDS011;3961;42.058;25.586;2024-01-16T05:35:51;71.20;;;38.60;;
7831;SDS011;3961;42.058;25.586;2024-01-16T05:38:16;64.80;;;36.23;;
7831;SDS011;3961;42.058;25.586;2024-01-16T05:40:43;75.40;;;36.23;;
7831;SDS011;3961;42.058;25.586;2024-01-16T05:43:08;84.23;;;42.13;;
7831;SDS011;3961;42.058;25.586;2024-01-16T05:45:34;68.50;;;37.47;;
7831;SDS011;3961;42.058;25.586;2024-01-16T05:47:59;74.07;;;38.87;;
7831;SDS011;3961;42.058;25.586;2024-01-16T05:50:25;69.60;;;35.50;;
7831;SDS011;3961;42.058;25.586;2024-01-16T05:52:50;67.37;;;37.23;;
7831;SDS011;3961;42.058;25.586;2024-01-16T05:55:16;72.87;;;36.47;;
7831;SDS011;3961;42.058;25.586;2024-01-16T05:57:41;72.60;;;37.83;;
7831;SDS011;3961;42.058;25.586;2024-01-16T06:00:08;73.03;;;37.23;;
7831;SDS011;3961;42.058;25.586;2024-01-16T06:02:35;67.47;;;37.53;;
7831;SDS011;3961;42.058;25.586;2024-01-16T06:05:00;63.03;;;35.27;;
7831;SDS011;3961;42.058;25.586;2024-01-16T06:07:27;63.80;;;33.70;;
7831;SDS011;3961;42.058;25.586;2024-01-16T06:09:53;62.60;;;32.33;;
7831;SDS011;3961;42.058;25.586;2024-01-16T06:12:19;57.73;;;31.80;;
7831;SDS011;3961;42.058;25.586;2024-01-16T06:14:44;58.83;;;30.97;;
7831;SDS011;3961;42.058;25.586;2024-01-16T06:17:09;63.47;;;30.87;;
7831;SDS011;3961;42.058;25.586;2024-01-16T06:19:35;51.87;;;28.27;;
7831;SDS011;3961;42.058;25.586;2024-01-16T06:22:01;53.60;;;29.60;;
7831;SDS011;3961;42.058;25.586;2024-01-16T06:24:27;46.30;;;27.47;;
7831;SDS011;3961;42.058;25.586;2024-01-16T06:26:53;51.40;;;27.63;;
7831;SDS011;3961;42.058;25.586;2024-01-16T06:29:18;54.07;;;28.10;;
7831;SDS011;3961;42.058;25.586;2024-01-16T06:31:44;47.50;;;26.87;;
7831;SDS011;3961;42.058;25.586;2024-01-16T06:34:09;47.83;;;26.97;;
7831;SDS011;3961;42.058;25.586;2024-01-16T06:36:35;50.90;;;26.83;;
7831;SDS011;3961;42.058;25.586;2024-01-16T06:39:00;50.47;;;26.43;;
7831;SDS011;3961;42.058;25.586;2024-01-16T06:41:26;43.93;;;25.87;;
7831;SDS011;3961;42.058;25.586;2024-01-16T06:43:51;43.63;;;25.27;;
7831;SDS011;3961;42.058;25.586;2024-01-16T06:46:17;45.67;;;25.53;;
7831;SDS011;3961;42.058;25.586;2024-01-16T06:48:43;49.60;;;26.60;;
7831;SDS011;3961;42.058;25.586;2024-01-16T06:51:08;46.53;;;26.80;;
7831;SDS011;3961;42.058;25.586;2024-01-16T06:53:35;49.23;;;26.30;;
7831;SDS011;3961;42.058;25.586;2024-01-16T06:56:01;52.00;;;26.10;;
7831;SDS011;3961;42.058;25.586;2024-01-16T06:58:28;48.90;;;27.07;;
7831;SDS011;3961;42.058;25.586;2024-01-16T07:00:53;48.47;;;27.57;;
7831;SDS011;3961;42.058;25.586;2024-01-16T07:03:19;240.17;;;152.70;;
7831;SDS011;3961;42.058;25.586;2024-01-16T07:05:44;60.03;;;35.30;;
7831;SDS011;3961;42.058;25.586;2024-01-16T07:08:10;46.77;;;27.80;;
7831;SDS011;3961;42.058;25.586;2024-01-16T07:10:35;47.00;;;26.17;;
7831;SDS011;3961;42.058;25.586;2024-01-16T07:13:01;104.40;;;59.83;;
7831;SDS011;3961;42.058;25.586;2024-01-16T07:15:27;90.30;;;52.37;;
7831;SDS011;3961;42.058;25.586;2024-01-16T07:17:53;55.60;;;32.10;;
7831;SDS011;3961;42.058;25.586;2024-01-16T07:20:19;47.50;;;26.63;;
7831;SDS011;3961;42.058;25.586;2024-01-16T07:22:45;45.27;;;26.03;;
7831;SDS011;3961;42.058;25.586;2024-01-16T07:25:11;42.10;;;24.87;;
7831;SDS011;3961;42.058;25.586;2024-01-16T07:27:36;46.37;;;26.10;;
7831;SDS011;3961;42.058;25.586;2024-01-16T07:30:05;43.37;;;25.47;;
7831;SDS011;3961;42.058;25.586;2024-01-16T07:32:31;46.23;;;27.63;;
7831;SDS011;3961;42.058;25.586;2024-01-16T07:34:57;45.93;;;26.33;;
7831;SDS011;3961;42.058;25.586;2024-01-16T07:37:23;48.57;;;29.23;;
7831;SDS011;3961;42.058;25.586;2024-01-16T07:39:49;47.37;;;27.13;;
7831;SDS011;3961;42.058;25.586;2024-01-16T07:42:14;45.67;;;25.97;;
7831;SDS011;3961;42.058;25.586;2024-01-16T07:44:40;44.80;;;24.17;;
7831;SDS011;3961;42.058;25.586;2024-01-16T07:47:05;42.83;;;24.73;;
7831;SDS011;3961;42.058;25.586;2024-01-16T07:49:31;43.57;;;24.83;;
7831;SDS011;3961;42.058;25.586;2024-01-16T07:51:57;41.60;;;25.67;;
7831;SDS011;3961;42.058;25.586;2024-01-16T07:54:22;41.17;;;25.30;;
7831;SDS011;3961;42.058;25.586;2024-01-16T07:56:48;62.33;;;22.87;;
7831;SDS011;3961;42.058;25.586;2024-01-16T07:59:13;41.10;;;23.10;;
7831;SDS011;3961;42.058;25.586;2024-01-16T08:01:39;41.67;;;24.43;;
7831;SDS011;3961;42.058;25.586;2024-01-16T08:04:04;41.43;;;23.23;;
7831;SDS011;3961;42.058;25.586;2024-01-16T08:06:30;38.27;;;22.03;;
7831;SDS011;3961;42.058;25.586;2024-01-16T08:08:56;37.53;;;22.40;;
7831;SDS011;3961;42.058;25.586;2024-01-16T08:11:22;57.30;;;32.33;;
7831;SDS011;3961;42.058;25.586;2024-01-16T08:13:47;36.70;;;21.07;;
7831;SDS011;3961;42.058;25.586;2024-01-16T08:16:13;36.00;;;21.93;;
7831;SDS011;3961;42.058;25.586;2024-01-16T08:18:38;36.00;;;20.40;;
7831;SDS011;3961;42.058;25.586;2024-01-16T08:21:03;33.03;;;20.33;;
7831;SDS011;3961;42.058;25.586;2024-01-16T08:23:29;30.10;;;17.23;;
7831;SDS011;3961;42.058;25.586;2024-01-16T08:25:54;30.23;;;18.40;;
7831;SDS011;3961;42.058;25.586;2024-01-16T08:28:20;28.90;;;18.27;;
7831;SDS011;3961;42.058;25.586;2024-01-16T08:30:46;79.20;;;49.33;;
7831;SDS011;3961;42.058;25.586;2024-01-16T08:33:11;131.10;;;69.87;;
7831;SDS011;3961;42.058;25.586;2024-01-16T08:35:37;41.87;;;29.37;;
7831;SDS011;3961;42.058;25.586;2024-01-16T08:38:03;32.83;;;19.37;;
7831;SDS011;3961;42.058;25.586;2024-01-16T08:40:29;31.70;;;17.77;;
7831;SDS011;3961;42.058;25.586;2024-01-16T08:42:55;30.17;;;17.53;;
7831;SDS011;3961;42.058;25.586;2024-01-16T08:45:21;27.27;;;15.83;;
7831;SDS011;3961;42.058;25.586;2024-01-16T08:47:47;33.93;;;18.60;;
7831;SDS011;3961;42.058;25.586;2024-01-16T08:50:13;33.90;;;18.53;;
7831;SDS011;3961;42.058;25.586;2024-01-16T08:52:39;34.97;;;16.47;;
7831;SDS011;3961;42.058;25.586;2024-01-16T08:55:05;29.53;;;15.93;;
7831;SDS011;3961;42.058;25.586;2024-01-16T08:57:31;22.73;;;14.37;;
7831;SDS011;3961;42.058;25.586;2024-01-16T08:59:57;29.40;;;15.47;;
7831;SDS011;3961;42.058;25.586;2024-01-16T09:02:22;24.33;;;14.73;;
7831;SDS011;3961;42.058;25.586;2024-01-16T09:04:49;20.17;;;13.73;;
7831;SDS011;3961;42.058;25.586;2024-01-16T09:07:16;26.73;;;13.47;;
7831;SDS011;3961;42.058;25.586;2024-01-16T09:09:42;31.57;;;13.87;;
7831;SDS011;3961;42.058;25.586;2024-01-16T09:12:08;32.57;;;14.93;;
7831;SDS011;3961;42.058;25.586;2024-01-16T09:14:34;23.87;;;13.67;;
7831;SDS011;3961;42.058;25.586;2024-01-16T09:17:00;20.40;;;13.30;;
7831;SDS011;3961;42.058;25.586;2024-01-16T09:19:25;26.07;;;13.70;;
7831;SDS011;3961;42.058;25.586;2024-01-16T09:21:51;30.63;;;15.50;;
7831;SDS011;3961;42.058;25.586;2024-01-16T09:24:17;20.93;;;13.77;;
7831;SDS011;3961;42.058;25.586;2024-01-16T09:26:44;22.20;;;14.87;;
7831;SDS011;3961;42.058;25.586;2024-01-16T09:29:09;19.10;;;12.67;;
7831;SDS011;3961;42.058;25.586;2024-01-16T09:31:35;23.00;;;13.43;;
7831;SDS011;3961;42.058;25.586;2024-01-16T09:34:01;21.33;;;12.13;;
7831;SDS011;3961;42.058;25.586;2024-01-16T09:36:29;23.93;;;12.20;;
7831;SDS011;3961;42.058;25.586;2024-01-16T09:38:54;24.73;;;10.60;;
7831;SDS011;3961;42.058;25.586;2024-01-16T09:41:20;13.63;;;8.17;;
7831;SDS011;3961;42.058;25.586;2024-01-16T09:43:46;12.23;;;8.50;;
7831;SDS011;3961;42.058;25.586;2024-01-16T09:46:12;13.03;;;8.40;;
7831;SDS011;3961;42.058;25.586;2024-01-16T09:48:41;14.83;;;10.00;;
7831;SDS011;3961;42.058;25.586;2024-01-16T09:51:10;26.60;;;9.77;;
7831;SDS011;3961;42.058;25.586;2024-01-16T09:53:40;21.20;;;9.80;;
7831;SDS011;3961;42.058;25.586;2024-01-16T09:56:10;12.03;;;7.67;;
7831;SDS011;3961;42.058;25.586;2024-01-16T09:58:40;24.67;;;10.33;;
7831;SDS011;3961;42.058;25.586;2024-01-16T10:01:07;20.47;;;9.80;;
7831;SDS011;3961;42.058;25.586;2024-01-16T10:03:34;19.23;;;9.03;;
7831;SDS011;3961;42.058;25.586;2024-01-16T10:06:06;16.80;;;9.23;;
7831;SDS011;3961;42.058;25.586;2024-01-16T10:08:32;18.87;;;8.73;;
7831;SDS011;3961;42.058;25.586;2024-01-16T10:10:58;19.80;;;7.73;;
7831;SDS011;3961;42.058;25.586;2024-01-16T10:13:25;22.63;;;8.37;;
7831;SDS011;3961;42.058;25.586;2024-01-16T10:15:52;14.30;;;5.50;;
7831;SDS011;3961;42.058;25.586;2024-01-16T10:18:23;11.23;;;5.73;;
7831;SDS011;3961;42.058;25.586;2024-01-16T10:20:50;5.73;;;3.90;;
7831;SDS011;3961;42.058;25.586;2024-01-16T10:23:27;9.73;;;4.53;;
7831;SDS011;3961;42.058;25.586;2024-01-16T10:26:07;6.43;;;3.43;;
7831;SDS011;3961;42.058;25.586;2024-01-16T10:28:40;9.10;;;3.60;;
7831;SDS011;3961;42.058;25.586;2024-01-16T10:31:08;4.00;;;3.17;;
7831;SDS011;3961;42.058;25.586;2024-01-16T10:33:39;5.80;;;3.30;;
7831;SDS011;3961;42.058;25.586;2024-01-16T10:38:40;4.57;;;3.17;;
7831;SDS011;3961;42.058;25.586;2024-01-16T10:41:14;4.83;;;2.70;;
7831;SDS011;3961;42.058;25.586;2024-01-16T10:43:42;5.53;;;3.00;;
7831;SDS011;3961;42.058;25.586;2024-01-16T10:46:13;5.93;;;3.23;;
7831;SDS011;3961;42.058;25.586;2024-01-16T10:48:43;3.63;;;3.00;;
7831;SDS011;3961;42.058;25.586;2024-01-16T10:51:16;11.33;;;3.03;;
7831;SDS011;3961;42.058;25.586;2024-01-16T10:53:42;4.83;;;3.10;;
7831;SDS011;3961;42.058;25.586;2024-01-16T10:56:12;4.10;;;2.80;;
7831;SDS011;3961;42.058;25.586;2024-01-16T10:58:40;4.60;;;2.87;;
7831;SDS011;3961;42.058;25.586;2024-01-16T11:01:07;4.93;;;3.20;;
7831;SDS011;3961;42.058;25.586;2024-01-16T11:03:49;10.13;;;3.73;;
7831;SDS011;3961;42.058;25.586;2024-01-16T11:06:16;7.73;;;2.93;;
7831;SDS011;3961;42.058;25.586;2024-01-16T11:08:45;4.63;;;2.70;;
7831;SDS011;3961;42.058;25.586;2024-01-16T11:11:11;13.10;;;6.27;;
7831;SDS011;3961;42.058;25.586;2024-01-16T11:13:38;6.27;;;3.27;;
7831;SDS011;3961;42.058;25.586;2024-01-16T11:16:06;4.67;;;2.70;;
7831;SDS011;3961;42.058;25.586;2024-01-16T11:18:35;4.90;;;2.73;;
7831;SDS011;3961;42.058;25.586;2024-01-16T11:21:08;3.50;;;2.50;;
7831;SDS011;3961;42.058;25.586;2024-01-16T11:23:37;7.37;;;2.50;;
7831;SDS011;3961;42.058;25.586;2024-01-16T11:28:50;4.47;;;2.60;;
7831;SDS011;3961;42.058;25.586;2024-01-16T11:31:49;3.27;;;2.10;;
7831;SDS011;3961;42.058;25.586;2024-01-16T11:34:09;6.77;;;2.60;;
7831;SDS011;3961;42.058;25.586;2024-01-16T11:36:48;5.80;;;2.60;;
7831;SDS011;3961;42.058;25.586;2024-01-16T11:39:20;4.70;;;2.60;;
7831;SDS011;3961;42.058;25.586;2024-01-16T11:41:56;2.30;;;2.10;;
7831;SDS011;3961;42.058;25.586;2024-01-16T11:44:36;3.90;;;2.10;;
7831;SDS011;3961;42.058;25.586;2024-01-16T11:47:03;4.17;;;2.23;;
7831;SDS011;3961;42.058;25.586;2024-01-16T11:49:29;2.30;;;2.10;;
7831;SDS011;3961;42.058;25.586;2024-01-16T11:51:57;6.00;;;2.20;;
7831;SDS011;3961;42.058;25.586;2024-01-16T11:54:23;3.50;;;1.87;;
7831;SDS011;3961;42.058;25.586;2024-01-16T12:02:00;3.70;;;2.10;;
7831;SDS011;3961;42.058;25.586;2024-01-16T12:04:30;4.33;;;2.17;;
7831;SDS011;3961;42.058;25.586;2024-01-16T12:06:58;26.60;;;14.83;;
7831;SDS011;3961;42.058;25.586;2024-01-16T12:09:28;7.50;;;3.77;;
7831;SDS011;3961;42.058;25.586;2024-01-16T12:11:57;3.13;;;2.50;;
7831;SDS011;3961;42.058;25.586;2024-01-16T12:14:24;2.97;;;2.30;;
7831;SDS011;3961;42.058;25.586;2024-01-16T12:16:49;5.67;;;2.60;;
7831;SDS011;3961;42.058;25.586;2024-01-16T12:19:15;3.70;;;2.00;;
7831;SDS011;3961;42.058;25.586;2024-01-16T12:21:41;4.17;;;2.03;;
7831;SDS011;3961;42.058;25.586;2024-01-16T12:24:09;2.10;;;1.90;;
7831;SDS011;3961;42.058;25.586;2024-01-16T12:26:35;6.47;;;2.07;;
7831;SDS011;3961;42.058;25.586;2024-01-16T12:29:01;6.03;;;2.30;;
7831;SDS011;3961;42.058;25.586;2024-01-16T12:31:27;4.53;;;2.20;;
7831;SDS011;3961;42.058;25.586;2024-01-16T12:33:54;6.07;;;3.90;;
7831;SDS011;3961;42.058;25.586;2024-01-16T12:36:40;3.73;;;2.30;;
7831;SDS011;3961;42.058;25.586;2024-01-16T12:39:06;3.47;;;2.70;;
7831;SDS011;3961;42.058;25.586;2024-01-16T12:41:36;3.83;;;2.00;;
7831;SDS011;3961;42.058;25.586;2024-01-16T12:44:07;3.53;;;2.33;;
7831;SDS011;3961;42.058;25.586;2024-01-16T12:57:21;12.40;;;2.30;;
7831;SDS011;3961;42.058;25.586;2024-01-16T12:59:47;3.43;;;2.40;;
7831;SDS011;3961;42.058;25.586;2024-01-16T13:14:04;15.57;;;3.70;;
7831;SDS011;3961;42.058;25.586;2024-01-16T13:16:30;5.20;;;2.80;;
7831;SDS011;3961;42.058;25.586;2024-01-16T13:19:01;3.70;;;2.93;;
7831;SDS011;3961;42.058;25.586;2024-01-16T13:21:29;7.07;;;2.00;;
7831;SDS011;3961;42.058;25.586;2024-01-16T13:23:54;2.13;;;1.63;;
7831;SDS011;3961;42.058;25.586;2024-01-16T13:26:20;5.80;;;2.30;;
7831;SDS011;3961;42.058;25.586;2024-01-16T13:28:45;2.67;;;2.23;;
7831;SDS011;3961;42.058;25.586;2024-01-16T13:31:13;6.40;;;2.00;;
7831;SDS011;3961;42.058;25.586;2024-01-16T13:33:38;5.10;;;2.23;;
7831;SDS011;3961;42.058;25.586;2024-01-16T13:36:04;2.50;;;2.10;;
7831;SDS011;3961;42.058;25.586;2024-01-16T13:38:29;3.37;;;2.00;;
7831;SDS011;3961;42.058;25.586;2024-01-16T13:40:55;2.40;;;2.20;;
7831;SDS011;3961;42.058;25.586;2024-01-16T13:43:20;5.80;;;2.23;;
7831;SDS011;3961;42.058;25.586;2024-01-16T13:45:46;2.00;;;1.80;;
7831;SDS011;3961;42.058;25.586;2024-01-16T13:48:15;5.33;;;2.30;;
7831;SDS011;3961;42.058;25.586;2024-01-16T13:50:42;8.73;;;4.63;;
7831;SDS011;3961;42.058;25.586;2024-01-16T13:53:07;6.33;;;3.00;;
7831;SDS011;3961;42.058;25.586;2024-01-16T13:55:33;7.60;;;2.30;;
7831;SDS011;3961;42.058;25.586;2024-01-16T13:57:58;3.93;;;2.20;;
7831;SDS011;3961;42.058;25.586;2024-01-16T14:00:24;2.33;;;2.13;;
7831;SDS011;3961;42.058;25.586;2024-01-16T14:02:50;5.60;;;2.30;;
7831;SDS011;3961;42.058;25.586;2024-01-16T14:05:19;3.33;;;1.90;;
7831;SDS011;3961;42.058;25.586;2024-01-16T14:07:44;4.00;;;2.17;;
7831;SDS011;3961;42.058;25.586;2024-01-16T14:10:11;9.43;;;3.17;;
7831;SDS011;3961;42.058;25.586;2024-01-16T14:12:38;7.67;;;2.70;;
7831;SDS011;3961;42.058;25.586;2024-01-16T14:15:04;3.40;;;1.70;;
7831;SDS011;3961;42.058;25.586;2024-01-16T14:17:34;2.13;;;1.93;;
7831;SDS011;3961;42.058;25.586;2024-01-16T14:20:00;162.67;;;104.40;;
7831;SDS011;3961;42.058;25.586;2024-01-16T14:22:27;196.40;;;128.60;;
7831;SDS011;3961;42.058;25.586;2024-01-16T14:24:53;6.77;;;4.17;;
7831;SDS011;3961;42.058;25.586;2024-01-16T14:27:18;27.80;;;19.60;;
7831;SDS011;3961;42.058;25.586;2024-01-16T14:29:44;7.67;;;5.23;;
7831;SDS011;3961;42.058;25.586;2024-01-16T14:32:09;8.13;;;4.37;;
7831;SDS011;3961;42.058;25.586;2024-01-16T14:34:35;2.30;;;1.90;;
7831;SDS011;3961;42.058;25.586;2024-01-16T14:37:00;3.50;;;2.17;;
7831;SDS011;3961;42.058;25.586;2024-01-16T14:39:26;6.77;;;2.17;;
7831;SDS011;3961;42.058;25.586;2024-01-16T14:41:56;2.93;;;2.23;;
7831;SDS011;3961;42.058;25.586;2024-01-16T14:44:23;3.40;;;2.50;;
7831;SDS011;3961;42.058;25.586;2024-01-16T14:46:49;4.67;;;3.00;;
7831;SDS011;3961;42.058;25.586;2024-01-16T14:49:15;4.13;;;2.67;;
7831;SDS011;3961;42.058;25.586;2024-01-16T14:51:41;2.33;;;2.10;;
7831;SDS011;3961;42.058;25.586;2024-01-16T14:54:07;9.43;;;3.10;;
7831;SDS011;3961;42.058;25.586;2024-01-16T14:56:33;78.40;;;42.13;;
7831;SDS011;3961;42.058;25.586;2024-01-16T14:58:59;34.60;;;20.07;;
7831;SDS011;3961;42.058;25.586;2024-01-16T15:01:24;10.67;;;3.83;;
7831;SDS011;3961;42.058;25.586;2024-01-16T15:03:50;6.03;;;2.80;;
7831;SDS011;3961;42.058;25.586;2024-01-16T15:06:16;9.23;;;3.27;;
7831;SDS011;3961;42.058;25.586;2024-01-16T15:08:42;25.20;;;4.77;;
7831;SDS011;3961;42.058;25.586;2024-01-16T15:11:08;31.93;;;11.10;;